createdAt,value
2023-04-19T00:01:04.472Z,12.52
2023-04-19T00:03:36.820Z,11.68
2023-04-19T00:06:10.487Z,12.98
2023-04-19T00:08:45.824Z,12.15
2023-04-19T00:11:18.056Z,11.88
2023-04-19T00:13:50.391Z,12.93
2023-04-19T00:16:22.446Z,12.50
2023-04-19T00:18:54.528Z,12.63
2023-04-19T00:21:27.356Z,13.13
2023-04-19T00:23:59.399Z,12.52
2023-04-19T00:26:33.078Z,12.25
2023-04-19T00:29:05.157Z,12.40
2023-04-19T00:31:39.669Z,11.30
2023-04-19T00:34:11.855Z,13.15
2023-04-19T00:36:43.857Z,12.70
2023-04-19T00:39:15.839Z,12.45
2023-04-19T00:41:47.839Z,13.60
2023-04-19T00:44:19.818Z,13.82
2023-04-19T00:46:51.990Z,13.52
2023-04-19T00:49:24.773Z,12.48
2023-04-19T00:51:57.822Z,12.32
2023-04-19T00:54:30.372Z,11.90
2023-04-19T00:57:04.015Z,11.90
2023-04-19T00:59:36.283Z,12.98
2023-04-19T01:02:09.729Z,12.57
2023-04-19T01:04:41.872Z,12.68
2023-04-19T01:07:14.883Z,12.70
2023-04-19T01:09:47.498Z,13.02
2023-04-19T01:12:19.644Z,12.30
2023-04-19T01:14:51.879Z,12.95
2023-04-19T01:17:23.945Z,13.48
2023-04-19T01:20:02.775Z,13.30
2023-04-19T01:22:37.797Z,13.32
2023-04-19T01:25:11.641Z,13.05
2023-04-19T01:27:44.488Z,14.32
2023-04-19T01:30:16.819Z,12.30
2023-04-19T01:32:48.861Z,13.05
2023-04-19T01:35:21.460Z,13.25
2023-04-19T01:37:55.587Z,12.07
2023-04-19T01:40:27.946Z,12.90
2023-04-19T01:43:00.024Z,13.80
2023-04-19T01:45:34.090Z,13.00
2023-04-19T01:48:07.472Z,14.25
2023-04-19T01:50:39.566Z,13.90
2023-04-19T01:53:11.696Z,14.43
2023-04-19T01:55:44.148Z,13.13
2023-04-19T01:58:16.654Z,14.10
2023-04-19T02:00:48.838Z,14.45
2023-04-19T02:03:21.104Z,12.73
2023-04-19T02:05:53.183Z,13.95
2023-04-19T02:08:25.791Z,13.13
2023-04-19T02:10:58.399Z,12.00
2023-04-19T02:13:30.432Z,12.73
2023-04-19T02:16:03.173Z,14.25
2023-04-19T02:18:40.706Z,13.32
2023-04-19T02:21:12.767Z,13.95
2023-04-19T02:23:44.781Z,13.68
2023-04-19T02:26:18.220Z,14.48
2023-04-19T02:28:52.721Z,14.23
2023-04-19T02:31:24.722Z,12.82
2023-04-19T02:33:56.783Z,14.23
2023-04-19T02:36:47.865Z,13.18
2023-04-19T02:39:19.860Z,14.73
2023-04-19T02:42:05.396Z,13.75
2023-04-19T02:44:37.468Z,13.65
2023-04-19T02:47:09.478Z,14.15
2023-04-19T02:49:42.651Z,14.18
2023-04-19T02:52:15.753Z,15.20
2023-04-19T02:54:48.339Z,13.07
2023-04-19T02:57:20.357Z,14.48
2023-04-19T02:59:52.437Z,13.73
2023-04-19T03:02:25.455Z,14.60
2023-04-19T03:04:57.584Z,15.05
2023-04-19T03:07:29.972Z,15.20
2023-04-19T03:10:02.514Z,14.27
2023-04-19T03:12:35.183Z,15.32
2023-04-19T03:15:08.688Z,13.98
2023-04-19T03:17:41.263Z,15.27
2023-04-19T03:20:13.594Z,14.98
2023-04-19T03:22:45.789Z,15.00
2023-04-19T03:25:18.052Z,14.82
2023-04-19T03:27:51.732Z,16.35
2023-04-19T03:30:23.717Z,16.35
2023-04-19T03:32:55.829Z,15.43
2023-04-19T03:35:30.914Z,15.60
2023-04-19T03:38:03.270Z,14.60
2023-04-19T03:40:38.000Z,15.82
2023-04-19T03:43:10.049Z,14.85
2023-04-19T03:45:42.250Z,14.85
2023-04-19T03:48:14.434Z,15.45
2023-04-19T03:50:46.580Z,15.35
2023-04-19T03:53:18.982Z,15.50
2023-04-19T03:55:51.109Z,14.07
2023-04-19T03:58:23.509Z,15.05
2023-04-19T04:00:56.023Z,15.88
2023-04-19T04:03:29.669Z,15.63
2023-04-19T04:06:02.190Z,14.05
2023-04-19T04:08:34.463Z,14.38
2023-04-19T04:11:06.697Z,14.52
2023-04-19T04:13:38.808Z,14.90
2023-04-19T04:16:12.096Z,14.77
2023-04-19T04:18:44.266Z,13.07
2023-04-19T04:21:16.393Z,15.02
2023-04-19T04:23:49.927Z,14.88
2023-04-19T04:26:25.288Z,15.25
2023-04-19T04:29:04.922Z,14.45
2023-04-19T04:31:37.007Z,14.95
2023-04-19T04:34:11.697Z,15.15
2023-04-19T04:36:44.874Z,13.77
2023-04-19T04:39:18.319Z,15.35
2023-04-19T04:41:52.028Z,15.00
2023-04-19T04:44:24.841Z,15.98
2023-04-19T04:46:58.356Z,15.15
2023-04-19T04:49:31.439Z,15.13
2023-04-19T04:52:03.666Z,14.70
2023-04-19T04:54:35.777Z,15.05
2023-04-19T04:57:08.923Z,15.18
2023-04-19T04:59:40.946Z,15.30
2023-04-19T05:02:13.541Z,14.85
2023-04-19T05:04:46.087Z,15.18
2023-04-19T05:07:18.256Z,14.25
2023-04-19T05:09:50.520Z,15.10
2023-04-19T05:12:22.663Z,15.00
2023-04-19T05:14:54.690Z,15.27
2023-04-19T05:17:26.756Z,15.25
2023-04-19T05:19:58.849Z,15.48
2023-04-19T05:22:31.304Z,14.93
2023-04-19T05:25:03.396Z,15.80
2023-04-19T05:27:36.416Z,14.35
2023-04-19T05:30:08.719Z,15.52
2023-04-19T05:32:41.224Z,15.45
2023-04-19T05:35:13.271Z,15.07
2023-04-19T05:37:45.352Z,14.48
2023-04-19T05:40:17.674Z,14.60
2023-04-19T05:42:50.519Z,14.20
2023-04-19T05:45:22.844Z,14.88
2023-04-19T05:47:56.438Z,14.82
2023-04-19T05:50:28.445Z,14.75
2023-04-19T05:53:00.415Z,15.25
2023-04-19T05:55:32.490Z,14.15
2023-04-19T05:58:04.529Z,14.52
2023-04-19T06:00:37.344Z,14.23
2023-04-19T06:03:09.598Z,14.65
2023-04-19T06:05:43.348Z,15.18
2023-04-19T06:08:16.920Z,13.68
2023-04-19T06:10:55.787Z,14.65
2023-04-19T06:13:32.346Z,13.77
2023-04-19T06:16:04.845Z,13.93
2023-04-19T06:18:37.986Z,14.25
2023-04-19T06:21:10.166Z,13.77
2023-04-19T06:23:42.193Z,13.82
2023-04-19T06:26:14.156Z,14.75
2023-04-19T06:28:46.350Z,13.60
2023-04-19T06:31:18.581Z,13.43
2023-04-19T06:33:51.145Z,13.73
2023-04-19T06:36:23.164Z,15.20
2023-04-19T06:38:55.541Z,15.65
2023-04-19T06:41:27.618Z,14.32
2023-04-19T06:43:59.733Z,13.02
2023-04-19T06:46:32.426Z,13.45
2023-04-19T06:49:04.708Z,14.35
2023-04-19T06:51:39.555Z,13.55
2023-04-19T06:54:11.802Z,13.75
2023-04-19T06:56:46.971Z,13.95
2023-04-19T06:59:21.141Z,12.95
2023-04-19T07:01:53.484Z,12.73
2023-04-19T07:04:26.994Z,13.15
2023-04-19T07:06:59.309Z,13.10
2023-04-19T07:09:31.477Z,12.95
2023-04-19T07:12:03.640Z,12.45
2023-04-19T07:14:36.987Z,13.52
2023-04-19T07:17:09.025Z,12.73
2023-04-19T07:19:42.464Z,13.15
2023-04-19T07:22:18.376Z,12.93
2023-04-19T07:24:52.168Z,11.80
2023-04-19T07:27:25.558Z,12.77
2023-04-19T07:30:05.799Z,13.20
2023-04-19T07:33:16.108Z,12.68
2023-04-19T07:35:48.428Z,10.95
2023-04-19T07:38:20.739Z,12.30
2023-04-19T07:40:53.228Z,12.60
2023-04-19T07:43:26.155Z,12.05
2023-04-19T07:46:00.914Z,11.35
2023-04-19T07:48:33.279Z,11.45
2023-04-19T07:51:13.011Z,11.60
2023-04-19T07:53:48.320Z,10.93
2023-04-19T07:56:23.141Z,11.15
2023-04-19T07:59:07.740Z,10.05
2023-04-19T08:01:40.888Z,9.27
2023-04-19T08:04:13.659Z,10.10
2023-04-19T08:06:46.286Z,9.60
2023-04-19T08:09:18.655Z,10.52
2023-04-19T08:11:51.084Z,9.85
2023-04-19T08:14:37.671Z,9.70
2023-04-19T08:19:55.005Z,10.70
2023-04-19T08:22:27.242Z,10.45
2023-04-19T08:24:59.247Z,9.05
2023-04-19T08:27:32.667Z,8.73
2023-04-19T08:30:06.814Z,9.68
2023-04-19T08:32:39.623Z,9.25
2023-04-19T08:35:11.685Z,9.02
2023-04-19T08:37:44.582Z,9.40
2023-04-19T08:40:17.223Z,9.35
2023-04-19T08:42:49.509Z,10.00
2023-04-19T08:45:28.289Z,9.75
2023-04-19T08:48:02.634Z,9.00
2023-04-19T08:50:48.396Z,9.70
2023-04-19T08:53:30.288Z,9.38
2023-04-19T08:56:18.127Z,10.00
2023-04-19T08:59:11.764Z,10.43
2023-04-19T09:01:49.353Z,9.77
2023-04-19T09:04:36.272Z,10.38
2023-04-19T09:07:22.319Z,10.50
2023-04-19T09:10:08.711Z,10.32
2023-04-19T09:12:43.851Z,10.95
2023-04-19T09:15:38.790Z,10.18
2023-04-19T09:18:15.910Z,11.88
2023-04-19T09:20:48.076Z,11.63
2023-04-19T09:23:20.140Z,10.75
2023-04-19T09:28:37.962Z,11.65
2023-04-19T09:31:33.369Z,11.52
2023-04-19T09:34:18.810Z,11.38
2023-04-19T09:37:00.516Z,11.93
2023-04-19T09:39:44.750Z,11.20
2023-04-19T09:42:28.045Z,11.80
2023-04-19T09:51:10.025Z,11.73
2023-04-19T09:53:44.612Z,10.93
2023-04-19T09:56:17.166Z,10.00
2023-04-19T09:58:54.576Z,10.15
2023-04-19T10:02:04.520Z,10.00
2023-04-19T10:04:56.946Z,10.38
2023-04-19T10:07:31.640Z,10.15
2023-04-19T10:10:18.659Z,9.80
2023-04-19T10:15:51.933Z,10.85
2023-04-19T10:18:26.977Z,9.70
2023-04-19T10:21:04.053Z,10.20
2023-04-19T10:23:38.243Z,10.20
2023-04-19T10:26:10.452Z,9.13
2023-04-19T10:28:42.769Z,9.13
2023-04-19T10:31:15.230Z,9.02
2023-04-19T10:33:53.869Z,9.07
2023-04-19T10:36:28.244Z,10.30
2023-04-19T10:39:00.473Z,9.90
2023-04-19T10:42:02.063Z,10.15
2023-04-19T10:44:34.061Z,10.93
2023-04-19T10:47:06.371Z,10.13
2023-04-19T10:49:48.075Z,9.60
2023-04-19T10:52:29.822Z,10.25
2023-04-19T10:55:04.474Z,9.40
2023-04-19T10:58:05.490Z,10.40
2023-04-19T11:00:38.510Z,10.18
2023-04-19T11:03:45.896Z,53.95
2023-04-19T11:06:27.087Z,9.00
2023-04-19T11:09:00.671Z,9.30
2023-04-19T11:11:36.761Z,10.73
2023-04-19T11:14:09.895Z,9.57
2023-04-19T11:16:45.769Z,9.90
2023-04-19T11:19:21.771Z,9.60
2023-04-19T11:21:58.511Z,9.60
2023-04-19T11:24:30.918Z,9.65
2023-04-19T11:27:08.911Z,10.52
2023-04-19T11:29:41.026Z,10.80
2023-04-19T11:32:14.669Z,10.27
2023-04-19T11:34:47.820Z,11.63
2023-04-19T11:37:20.052Z,11.98
2023-04-19T11:39:52.180Z,10.75
2023-04-19T11:42:24.223Z,12.25
2023-04-19T11:44:57.669Z,13.77
2023-04-19T11:47:32.202Z,12.88
2023-04-19T11:50:35.842Z,13.25
2023-04-19T11:53:17.093Z,12.70
2023-04-19T11:55:53.098Z,12.02
2023-04-19T11:58:39.992Z,14.82
2023-04-19T12:01:22.359Z,13.15
2023-04-19T12:03:58.063Z,14.73
2023-04-19T12:06:34.077Z,14.02
2023-04-19T12:09:11.478Z,13.82
2023-04-19T12:11:50.120Z,13.35
2023-04-19T12:14:23.779Z,14.07
2023-04-19T12:17:24.099Z,16.83
2023-04-19T12:19:57.394Z,16.15
2023-04-19T12:22:29.550Z,15.48
2023-04-19T12:47:28.978Z,13.52
2023-04-19T12:50:02.046Z,15.50
2023-04-19T12:52:38.582Z,14.95
2023-04-19T12:55:14.087Z,15.07
2023-04-19T12:57:47.902Z,13.07
2023-04-19T13:00:20.331Z,16.20
2023-04-19T13:02:52.803Z,14.50
2023-04-19T13:05:26.005Z,14.52
2023-04-19T13:07:58.543Z,14.50
2023-04-19T13:10:31.397Z,15.18
2023-04-19T13:13:03.659Z,15.43
2023-04-19T13:15:36.232Z,15.18
2023-04-19T13:18:09.619Z,13.60
2023-04-19T13:20:41.987Z,14.55
2023-04-19T13:23:14.229Z,13.40
2023-04-19T13:25:47.158Z,13.65
2023-04-19T13:28:19.402Z,13.45
2023-04-19T13:30:52.172Z,11.48
2023-04-19T13:33:24.659Z,12.48
2023-04-19T13:35:58.283Z,13.65
2023-04-19T13:38:30.986Z,12.65
2023-04-19T13:41:04.043Z,12.93
2023-04-19T13:43:36.452Z,13.02
2023-04-19T13:46:10.027Z,13.38
2023-04-19T13:48:42.346Z,11.60
2023-04-19T13:51:15.060Z,12.05
2023-04-19T13:53:47.283Z,12.75
2023-04-19T13:56:19.666Z,12.63
2023-04-19T13:58:51.992Z,12.05
2023-04-19T14:01:24.314Z,11.68
2023-04-19T14:03:56.732Z,12.23
2023-04-19T14:06:44.479Z,12.65
2023-04-19T14:09:17.033Z,11.55
2023-04-19T14:11:49.511Z,10.65
2023-04-19T14:14:22.166Z,11.32
2023-04-19T14:17:36.117Z,10.65
2023-04-19T14:20:09.030Z,9.75
2023-04-19T14:22:42.364Z,10.32
2023-04-19T14:25:18.399Z,10.27
2023-04-19T14:27:50.800Z,10.80
2023-04-19T14:30:23.240Z,10.30
2023-04-19T14:32:57.720Z,10.50
2023-04-19T14:35:30.842Z,9.77
2023-04-19T14:38:03.312Z,9.88
2023-04-19T14:40:37.316Z,9.98
2023-04-19T14:43:14.560Z,10.15
2023-04-19T14:45:49.882Z,10.27
2023-04-19T14:48:22.706Z,9.57
2023-04-19T14:50:56.101Z,9.98
2023-04-19T14:53:28.436Z,10.05
2023-04-19T14:56:04.589Z,9.88
2023-04-19T14:58:37.277Z,10.63
2023-04-19T15:01:15.919Z,10.48
2023-04-19T15:03:48.357Z,11.35
2023-04-19T15:06:20.962Z,10.18
2023-04-19T15:08:53.193Z,10.60
2023-04-19T15:11:45.803Z,11.15
2023-04-19T15:14:19.986Z,9.60
2023-04-19T15:16:52.442Z,10.50
2023-04-19T15:19:24.736Z,9.75
2023-04-19T15:22:14.745Z,10.63
2023-04-19T15:24:47.525Z,10.57
2023-04-19T15:27:19.927Z,10.93
2023-04-19T15:29:52.078Z,11.23
2023-04-19T15:32:24.848Z,10.27
2023-04-19T15:34:57.182Z,11.00
2023-04-19T15:37:29.342Z,10.07
2023-04-19T15:40:01.514Z,10.63
2023-04-19T15:42:33.757Z,10.13
2023-04-19T15:45:07.619Z,9.88
2023-04-19T15:47:41.008Z,9.48
2023-04-19T15:50:13.773Z,10.02
2023-04-19T15:55:35.047Z,9.48
2023-04-19T15:58:07.673Z,9.55
2023-04-19T16:00:39.905Z,10.43
2023-04-19T16:03:12.687Z,9.30
2023-04-19T16:05:45.069Z,9.90
2023-04-19T16:08:19.674Z,9.25
2023-04-19T16:10:51.858Z,8.88
2023-04-19T16:13:24.098Z,8.70
2023-04-19T16:15:56.532Z,9.70
2023-04-19T16:18:28.628Z,8.45
2023-04-19T16:21:04.035Z,7.88
2023-04-19T16:23:36.602Z,8.45
2023-04-19T16:26:09.115Z,8.57
2023-04-19T16:28:41.913Z,9.00
2023-04-19T16:31:14.473Z,8.98
2023-04-19T16:34:05.254Z,9.00
2023-04-19T16:36:37.432Z,7.70
2023-04-19T16:39:14.253Z,7.93
2023-04-19T16:41:46.633Z,7.53
2023-04-19T16:44:19.960Z,8.00
2023-04-19T16:46:52.540Z,9.70
2023-04-19T16:49:26.443Z,8.50
2023-04-19T16:51:59.006Z,8.40
2023-04-19T16:54:31.402Z,5.88
2023-04-19T16:57:04.136Z,3.60
2023-04-19T16:59:37.484Z,3.08
2023-04-19T17:02:11.043Z,3.88
2023-04-19T17:04:46.115Z,5.55
2023-04-19T17:07:18.688Z,7.63
2023-04-19T17:09:50.857Z,7.65
2023-04-19T17:12:23.032Z,5.95
2023-04-19T17:14:55.649Z,7.15
2023-04-19T17:17:27.917Z,3.75
2023-04-19T17:20:00.220Z,3.25
2023-04-19T17:22:32.659Z,2.45
2023-04-19T17:25:05.332Z,2.10
2023-04-19T17:27:39.066Z,2.20
2023-04-19T17:30:12.110Z,2.20
2023-04-19T17:32:44.757Z,2.40
2023-04-19T17:35:17.016Z,2.40
2023-04-19T17:37:49.473Z,2.30
2023-04-19T17:40:21.914Z,1.98
2023-04-19T17:42:54.060Z,1.98
2023-04-19T17:45:26.718Z,2.70
2023-04-19T17:47:59.219Z,2.30
2023-04-19T17:50:33.262Z,2.28
2023-04-19T17:53:05.953Z,2.50
2023-04-19T17:55:38.589Z,2.10
2023-04-19T17:58:10.838Z,2.22
2023-04-19T18:00:43.148Z,2.50
2023-04-19T18:03:15.933Z,2.80
2023-04-19T18:05:49.482Z,2.20
2023-04-19T18:08:22.010Z,2.42
2023-04-19T18:10:54.292Z,2.40
2023-04-19T18:13:27.125Z,2.65
2023-04-19T18:15:59.856Z,2.67
2023-04-19T18:18:32.559Z,2.90
2023-04-19T18:21:06.409Z,2.80
2023-04-19T18:23:40.606Z,3.00
2023-04-19T18:26:12.930Z,3.47
2023-04-19T18:28:46.048Z,2.78
2023-04-19T18:31:19.613Z,3.50
2023-04-19T18:33:51.778Z,3.20
2023-04-19T18:36:24.293Z,3.53
2023-04-19T18:38:57.028Z,3.33
2023-04-19T18:41:29.844Z,3.28
2023-04-19T18:46:38.896Z,3.67
2023-04-19T18:49:11.899Z,3.13
2023-04-19T18:51:45.269Z,3.50
2023-04-19T18:54:21.092Z,3.05
2023-04-19T18:59:45.530Z,4.00
2023-04-19T19:02:20.054Z,3.17
2023-04-19T19:04:58.551Z,3.75
2023-04-19T19:07:37.518Z,3.28
2023-04-19T19:12:50.595Z,3.55
2023-04-19T19:15:25.872Z,3.60
2023-04-19T19:18:00.238Z,3.22
2023-04-19T19:20:35.041Z,3.10
2023-04-19T19:23:08.719Z,3.75
2023-04-19T19:25:43.116Z,3.63
2023-04-19T19:28:18.615Z,3.70
2023-04-19T19:30:53.296Z,3.53
2023-04-19T19:33:33.565Z,3.55
2023-04-19T19:36:09.340Z,3.63
2023-04-19T19:38:43.154Z,3.55
2023-04-19T19:43:55.870Z,3.30
2023-04-19T19:46:30.946Z,3.90
2023-04-19T19:49:12.941Z,4.13
2023-04-19T19:51:56.587Z,3.38
2023-04-19T19:54:40.666Z,3.42
2023-04-19T19:57:53.061Z,3.92
2023-04-19T20:05:26.718Z,3.75
2023-04-19T20:08:27.058Z,3.63
2023-04-19T20:11:00.755Z,4.50
2023-04-19T20:13:34.150Z,4.45
2023-04-19T20:16:07.527Z,3.42
2023-04-19T20:18:42.962Z,3.70
2023-04-19T20:21:18.522Z,3.80
2023-04-19T20:23:53.046Z,3.97
2023-04-19T20:26:26.627Z,3.60
2023-04-19T20:29:00.890Z,4.03
2023-04-19T20:31:34.409Z,4.13
2023-04-19T20:34:09.165Z,3.75
2023-04-19T20:36:42.951Z,3.60
2023-04-19T20:39:19.424Z,3.60
2023-04-19T20:41:54.048Z,3.53
2023-04-19T20:44:29.425Z,3.70
2023-04-19T20:47:02.896Z,4.07
2023-04-19T20:49:36.268Z,3.63
2023-04-19T20:52:11.100Z,3.50
2023-04-19T20:54:44.340Z,3.67
2023-04-19T20:57:17.646Z,3.35
2023-04-19T20:59:51.035Z,3.90
2023-04-19T21:02:23.583Z,3.88
2023-04-19T21:04:56.264Z,4.25
2023-04-19T21:07:28.504Z,4.03
2023-04-19T21:10:00.624Z,4.45
2023-04-19T21:12:34.841Z,3.67
2023-04-19T21:15:07.495Z,4.35
2023-04-19T21:17:40.137Z,3.90
2023-04-19T21:20:14.767Z,3.97
2023-04-19T21:22:49.211Z,4.22
2023-04-19T21:25:21.653Z,3.90
2023-04-19T21:27:53.983Z,3.75
2023-04-19T21:30:26.607Z,4.40
2023-04-19T21:32:59.399Z,4.70
2023-04-19T21:35:31.834Z,4.70
2023-04-19T21:38:04.823Z,4.40
2023-04-19T21:40:37.889Z,4.57
2023-04-19T21:43:10.115Z,3.70
2023-04-19T21:45:43.122Z,3.80
2023-04-19T21:48:15.522Z,4.43
2023-04-19T21:50:47.687Z,4.45
2023-04-19T21:53:19.703Z,4.90
2023-04-19T21:55:52.216Z,4.50
2023-04-19T21:58:24.315Z,4.90
2023-04-19T22:00:56.514Z,4.85
2023-04-19T22:03:29.114Z,4.43
2023-04-19T22:06:46.084Z,4.90
2023-04-19T22:09:18.460Z,4.72
2023-04-19T22:11:50.748Z,4.53
2023-04-19T22:14:24.056Z,4.15
2023-04-19T22:16:56.825Z,4.80
2023-04-19T22:19:31.714Z,4.40
2023-04-19T22:22:03.940Z,4.65
2023-04-19T22:24:43.852Z,4.00
2023-04-19T22:27:25.888Z,4.30
2023-04-19T22:29:58.414Z,4.18
2023-04-19T22:32:30.545Z,4.30
2023-04-19T22:35:02.967Z,4.90
2023-04-19T22:37:35.519Z,4.90
2023-04-19T22:40:08.387Z,5.10
2023-04-19T22:42:41.049Z,4.72
2023-04-19T22:45:13.067Z,4.80
2023-04-19T22:47:45.448Z,4.80
2023-04-19T22:50:17.578Z,4.38
2023-04-19T22:52:58.948Z,4.22
2023-04-19T22:55:31.117Z,4.55
2023-04-19T22:58:04.835Z,4.68
2023-04-19T23:00:37.934Z,4.00
2023-04-19T23:03:10.476Z,4.60
2023-04-19T23:05:42.676Z,4.90
2023-04-19T23:08:15.717Z,4.80
2023-04-19T23:10:50.968Z,5.25
2023-04-19T23:13:23.001Z,4.53
2023-04-19T23:16:11.922Z,4.10
2023-04-19T23:18:45.217Z,5.03
2023-04-19T23:21:17.670Z,4.40
2023-04-19T23:23:50.781Z,4.28
2023-04-19T23:26:22.850Z,5.00
2023-04-19T23:28:55.297Z,4.90
2023-04-19T23:31:27.432Z,4.75
2023-04-19T23:33:59.530Z,5.38
2023-04-19T23:36:31.838Z,4.78
2023-04-19T23:39:05.017Z,5.13
2023-04-19T23:41:37.009Z,4.85
2023-04-19T23:44:09.175Z,4.00
2023-04-19T23:46:41.920Z,4.90
2023-04-19T23:49:14.109Z,4.45
2023-04-19T23:51:48.941Z,4.72
2023-04-19T23:54:25.782Z,4.95
2023-04-19T23:56:58.824Z,4.50
2023-04-19T23:59:32.920Z,4.50
